createdAt,value
2019-03-03T00:02:18.421Z,18.13
2019-03-03T00:04:49.373Z,15.00
2019-03-03T00:07:20.279Z,16.63
2019-03-03T00:09:51.204Z,17.60
2019-03-03T00:12:22.110Z,14.17
2019-03-03T00:14:53.037Z,15.00
2019-03-03T00:17:23.939Z,13.30
2019-03-03T00:19:54.905Z,16.30
2019-03-03T00:22:25.813Z,13.20
2019-03-03T00:24:56.742Z,15.13
2019-03-03T00:27:29.265Z,13.97
2019-03-03T00:30:00.262Z,16.97
2019-03-03T00:32:31.149Z,12.93
2019-03-03T00:35:02.879Z,14.97
2019-03-03T00:37:47.349Z,12.17
2019-03-03T00:40:22.619Z,11.70
2019-03-03T00:42:55.155Z,14.57
2019-03-03T00:45:33.554Z,9.63
2019-03-03T00:48:23.661Z,13.23
2019-03-03T00:50:56.243Z,13.70
2019-03-03T00:53:34.695Z,11.13
2019-03-03T00:56:10.365Z,12.57
2019-03-03T00:58:45.802Z,11.60
2019-03-03T01:01:21.304Z,15.47
2019-03-03T01:03:53.845Z,13.43
2019-03-03T01:06:32.581Z,11.93
2019-03-03T01:09:06.555Z,13.90
2019-03-03T01:11:45.179Z,9.03
2019-03-03T01:14:20.390Z,11.63
2019-03-03T01:16:52.991Z,12.20
2019-03-03T01:19:25.491Z,11.13
2019-03-03T01:22:05.765Z,9.70
2019-03-03T01:24:44.275Z,15.27
2019-03-03T01:27:15.191Z,14.30
2019-03-03T01:29:46.092Z,12.97
2019-03-03T01:32:17.011Z,11.67
2019-03-03T01:34:47.899Z,14.30
2019-03-03T01:37:18.840Z,12.73
2019-03-03T01:39:49.805Z,11.50
2019-03-03T01:42:20.728Z,13.20
2019-03-03T01:44:51.622Z,11.57
2019-03-03T01:47:22.534Z,11.50
2019-03-03T01:49:53.429Z,11.93
2019-03-03T01:52:24.445Z,10.27
2019-03-03T01:54:55.411Z,11.30
2019-03-03T01:57:26.328Z,15.20
2019-03-03T01:59:57.287Z,12.70
2019-03-03T02:02:28.213Z,12.13
2019-03-03T02:04:59.024Z,11.80
2019-03-03T02:07:29.954Z,12.20
2019-03-03T02:10:00.850Z,13.50
2019-03-03T02:12:31.776Z,12.33
2019-03-03T02:15:02.681Z,14.07
2019-03-03T02:17:33.586Z,16.40
2019-03-03T02:20:06.485Z,12.07
2019-03-03T02:22:39.098Z,13.17
2019-03-03T02:25:12.344Z,12.50
2019-03-03T02:27:43.271Z,14.70
2019-03-03T02:30:21.353Z,14.23
2019-03-03T02:32:52.277Z,12.33
2019-03-03T02:35:23.173Z,13.87
2019-03-03T02:37:54.133Z,15.90
2019-03-03T02:40:25.036Z,16.37
2019-03-03T02:42:55.962Z,16.40
2019-03-03T02:45:26.858Z,11.37
2019-03-03T02:47:57.789Z,12.50
2019-03-03T02:50:28.707Z,12.30
2019-03-03T02:52:59.649Z,12.83
2019-03-03T02:55:30.545Z,12.90
2019-03-03T02:58:01.477Z,13.20
2019-03-03T03:00:32.437Z,13.73
2019-03-03T03:03:05.001Z,13.20
2019-03-03T03:05:37.527Z,13.67
2019-03-03T03:08:15.956Z,11.83
2019-03-03T03:10:51.451Z,13.77
2019-03-03T03:13:36.046Z,14.37
2019-03-03T03:16:08.587Z,11.87
2019-03-03T03:18:41.150Z,11.57
2019-03-03T03:21:22.451Z,13.40
2019-03-03T03:24:01.033Z,13.13
2019-03-03T03:26:49.855Z,14.63
2019-03-03T03:29:23.346Z,12.83
2019-03-03T03:31:55.879Z,11.70
2019-03-03T03:34:28.464Z,13.53
2019-03-03T03:37:01.175Z,13.57
2019-03-03T03:39:33.766Z,13.33
2019-03-03T03:42:12.310Z,12.57
2019-03-03T03:44:54.086Z,14.60
2019-03-03T03:47:35.856Z,13.77
2019-03-03T03:50:12.923Z,14.07
2019-03-03T03:53:00.662Z,15.57
2019-03-03T03:55:36.142Z,14.07
2019-03-03T03:58:14.769Z,13.97
2019-03-03T04:00:47.335Z,15.27
2019-03-03T04:03:23.134Z,16.97
2019-03-03T04:06:05.077Z,15.43
2019-03-03T04:08:53.832Z,15.40
2019-03-03T04:11:44.525Z,15.80
2019-03-03T04:14:35.585Z,17.13
2019-03-03T04:17:23.253Z,19.50
2019-03-03T04:20:04.673Z,18.13
2019-03-03T04:22:37.263Z,17.60
2019-03-03T04:25:18.756Z,17.80
2019-03-03T04:28:10.421Z,17.17
2019-03-03T04:30:48.742Z,18.07
2019-03-03T04:33:24.008Z,16.80
2019-03-03T04:36:14.871Z,20.23
2019-03-03T04:38:47.425Z,18.17
2019-03-03T04:41:19.984Z,19.07
2019-03-03T04:43:58.420Z,17.10
2019-03-03T04:46:33.928Z,19.83
2019-03-03T04:49:09.201Z,20.20
2019-03-03T04:51:44.450Z,19.70
2019-03-03T04:54:26.210Z,20.37
2019-03-03T04:56:58.750Z,16.20
2019-03-03T04:59:43.570Z,18.90
2019-03-03T05:02:16.112Z,18.60
2019-03-03T05:04:49.511Z,16.67
2019-03-03T05:07:28.275Z,19.77
2019-03-03T05:10:00.763Z,18.00
2019-03-03T05:12:48.242Z,19.37
2019-03-03T05:15:24.244Z,19.33
2019-03-03T05:18:02.515Z,19.07
2019-03-03T05:20:50.452Z,19.27
2019-03-03T05:23:21.350Z,20.47
2019-03-03T05:25:52.281Z,19.93
2019-03-03T05:28:23.183Z,20.80
2019-03-03T05:30:54.309Z,20.40
2019-03-03T05:33:26.895Z,21.20
2019-03-03T05:35:57.831Z,20.87
2019-03-03T05:38:28.738Z,22.73
2019-03-03T05:40:59.722Z,23.07
2019-03-03T05:43:30.623Z,19.40
2019-03-03T05:46:01.594Z,20.13
2019-03-03T05:48:32.502Z,23.03
2019-03-03T05:51:03.428Z,25.47
2019-03-03T05:53:34.325Z,18.77
2019-03-03T05:56:05.248Z,25.37
2019-03-03T05:58:36.140Z,26.20
2019-03-03T06:01:07.880Z,23.03
2019-03-03T06:03:38.780Z,24.70
2019-03-03T06:06:09.712Z,21.00
2019-03-03T06:08:40.613Z,23.90
2019-03-03T06:11:11.540Z,27.37
2019-03-03T06:13:42.436Z,23.80
2019-03-03T06:16:14.419Z,23.27
2019-03-03T06:18:45.320Z,25.70
2019-03-03T06:21:16.249Z,26.20
2019-03-03T06:23:47.161Z,26.87
2019-03-03T06:26:18.994Z,26.00
2019-03-03T06:28:49.902Z,22.13
2019-03-03T06:31:21.783Z,21.43
2019-03-03T06:33:53.579Z,25.60
2019-03-03T06:36:24.522Z,31.00
2019-03-03T06:38:55.437Z,30.60
2019-03-03T06:41:26.362Z,28.37
2019-03-03T06:43:57.269Z,27.67
2019-03-03T06:46:28.235Z,26.10
2019-03-03T06:48:59.143Z,26.07
2019-03-03T06:51:30.937Z,26.03
2019-03-03T06:54:01.849Z,25.90
2019-03-03T06:56:32.781Z,26.20
2019-03-03T06:59:03.752Z,25.90
2019-03-03T07:01:34.695Z,25.53
2019-03-03T07:04:05.606Z,26.77
2019-03-03T07:06:36.542Z,26.13
2019-03-03T07:09:07.537Z,25.97
2019-03-03T07:11:38.459Z,28.03
2019-03-03T07:14:09.353Z,26.07
2019-03-03T07:16:41.151Z,24.27
2019-03-03T07:19:12.054Z,29.10
2019-03-03T07:21:42.988Z,28.53
2019-03-03T07:24:13.898Z,27.60
2019-03-03T07:26:44.827Z,25.97
2019-03-03T07:29:15.805Z,28.77
2019-03-03T07:31:46.742Z,28.67
2019-03-03T07:34:18.552Z,29.20
2019-03-03T07:36:52.690Z,41.40
2019-03-03T07:39:23.593Z,30.80
2019-03-03T07:41:55.469Z,31.37
2019-03-03T07:44:26.379Z,25.40
2019-03-03T07:46:58.259Z,25.87
2019-03-03T07:49:29.163Z,30.30
2019-03-03T07:52:00.097Z,35.27
2019-03-03T07:54:31.028Z,29.83
2019-03-03T07:57:02.829Z,32.10
2019-03-03T07:59:33.736Z,27.23
2019-03-03T08:02:05.534Z,41.07
2019-03-03T08:04:36.440Z,27.53
2019-03-03T08:07:07.372Z,30.57
2019-03-03T08:09:38.301Z,32.27
2019-03-03T08:12:09.276Z,30.67
2019-03-03T08:14:40.179Z,30.60
2019-03-03T08:17:11.126Z,33.53
2019-03-03T08:19:42.117Z,31.17
2019-03-03T08:22:13.115Z,29.80
2019-03-03T08:24:44.016Z,22.47
2019-03-03T08:27:14.944Z,29.97
2019-03-03T08:29:45.856Z,26.23
2019-03-03T08:32:16.809Z,28.63
2019-03-03T08:34:49.288Z,33.83
2019-03-03T08:37:20.216Z,30.27
2019-03-03T08:39:51.121Z,30.37
2019-03-03T08:42:33.454Z,32.00
2019-03-03T08:45:23.227Z,32.60
2019-03-03T08:47:56.636Z,31.00
2019-03-03T08:50:33.452Z,32.20
2019-03-03T08:53:14.922Z,29.33
2019-03-03T08:56:04.318Z,34.50
2019-03-03T08:58:53.437Z,29.17
2019-03-03T09:01:26.006Z,35.80
2019-03-03T09:04:08.325Z,29.43
2019-03-03T09:06:40.873Z,30.13
2019-03-03T09:09:15.967Z,34.07
2019-03-03T09:11:48.517Z,29.33
2019-03-03T09:14:21.112Z,28.97
2019-03-03T09:17:05.528Z,44.70
2019-03-03T09:19:38.934Z,26.37
2019-03-03T09:22:11.486Z,28.27
2019-03-03T09:24:59.043Z,29.07
2019-03-03T09:27:34.334Z,45.93
2019-03-03T09:30:12.616Z,34.97
2019-03-03T09:33:00.124Z,29.67
2019-03-03T09:35:34.552Z,27.53
2019-03-03T09:38:07.334Z,27.87
2019-03-03T09:40:45.650Z,28.00
2019-03-03T09:43:21.184Z,26.50
2019-03-03T09:46:08.846Z,41.70
2019-03-03T09:48:56.189Z,51.80
2019-03-03T09:51:48.010Z,46.30
2019-03-03T09:54:23.728Z,50.67
2019-03-03T09:57:12.577Z,32.67
2019-03-03T09:59:45.148Z,41.13
2019-03-03T10:02:29.679Z,36.30
2019-03-03T10:05:05.141Z,43.13
2019-03-03T10:07:53.894Z,47.03
2019-03-03T10:10:26.448Z,38.33
2019-03-03T10:13:01.976Z,39.30
2019-03-03T10:15:43.528Z,54.03
2019-03-03T10:18:25.322Z,45.03
2019-03-03T10:21:13.077Z,36.17
2019-03-03T10:24:04.512Z,41.43
2019-03-03T10:26:37.071Z,32.33
2019-03-03T10:29:10.060Z,47.00
2019-03-03T10:31:45.601Z,60.67
2019-03-03T10:34:30.292Z,58.73
2019-03-03T10:37:19.086Z,60.70
2019-03-03T10:39:56.510Z,39.00
2019-03-03T10:42:31.769Z,63.23
2019-03-03T10:45:04.381Z,63.43
2019-03-03T10:47:43.145Z,48.43
2019-03-03T10:50:18.678Z,41.97
2019-03-03T10:52:57.205Z,52.80
2019-03-03T10:55:30.608Z,62.83
2019-03-03T10:58:12.478Z,62.97
2019-03-03T11:01:03.057Z,52.87
2019-03-03T11:03:35.642Z,43.97
2019-03-03T11:06:20.209Z,37.50
2019-03-03T11:09:01.847Z,33.00
2019-03-03T11:11:38.411Z,28.97
2019-03-03T11:14:17.481Z,30.10
2019-03-03T11:17:02.026Z,34.23
2019-03-03T11:19:46.676Z,29.00
2019-03-03T11:22:34.321Z,28.32
2019-03-03T11:25:12.097Z,30.87
2019-03-03T11:27:48.448Z,33.57
2019-03-03T11:30:23.713Z,35.13
2019-03-03T11:33:12.362Z,29.00
2019-03-03T11:35:45.046Z,33.23
2019-03-03T11:38:32.953Z,32.73
2019-03-03T11:41:13.009Z,33.30
2019-03-03T11:43:49.872Z,33.67
2019-03-03T11:46:22.472Z,35.83
2019-03-03T11:49:04.298Z,40.00
2019-03-03T11:51:45.592Z,50.00
2019-03-03T11:54:30.342Z,39.07
2019-03-03T11:57:02.887Z,38.33
2019-03-03T11:59:38.241Z,39.00
2019-03-03T12:02:22.813Z,35.20
2019-03-03T12:05:04.378Z,37.13
2019-03-03T12:07:48.883Z,34.70
2019-03-03T12:10:24.181Z,53.47
2019-03-03T12:12:59.697Z,38.43
2019-03-03T12:15:41.111Z,34.53
2019-03-03T12:18:13.654Z,34.10
2019-03-03T12:20:49.221Z,30.20
2019-03-03T12:23:24.488Z,27.13
2019-03-03T12:26:13.393Z,28.90
2019-03-03T12:28:58.205Z,23.57
2019-03-03T12:31:51.200Z,25.33
2019-03-03T12:34:23.759Z,24.63
2019-03-03T12:36:57.126Z,31.40
2019-03-03T12:39:40.070Z,31.90
2019-03-03T12:42:12.637Z,24.93
2019-03-03T12:44:48.104Z,31.93
2019-03-03T12:47:30.524Z,34.13
2019-03-03T12:50:11.981Z,48.47
2019-03-03T12:52:50.511Z,36.13
2019-03-03T12:55:23.046Z,40.70
2019-03-03T12:57:58.711Z,25.00
2019-03-03T13:00:46.500Z,40.37
2019-03-03T13:03:22.210Z,18.37
2019-03-03T13:05:54.727Z,24.27
2019-03-03T13:08:27.273Z,18.65
2019-03-03T13:11:05.906Z,18.32
2019-03-03T13:13:41.471Z,66.13
2019-03-03T13:16:30.454Z,39.77
2019-03-03T13:19:03.845Z,65.57
2019-03-03T13:21:39.339Z,32.35
2019-03-03T13:24:14.859Z,45.20
2019-03-03T13:27:02.668Z,57.00
2019-03-03T13:29:35.228Z,21.97
2019-03-03T13:32:10.774Z,14.93
2019-03-03T13:34:44.174Z,22.00
2019-03-03T13:37:22.662Z,14.47
2019-03-03T13:40:12.151Z,14.10
2019-03-03T13:42:47.603Z,13.43
2019-03-03T13:45:18.542Z,12.17
2019-03-03T13:47:49.433Z,14.70
2019-03-03T13:50:21.200Z,14.17
2019-03-03T13:52:52.118Z,20.17
2019-03-03T13:55:23.152Z,15.53
2019-03-03T13:57:54.046Z,15.20
2019-03-03T14:00:25.059Z,17.53
2019-03-03T14:02:55.964Z,22.80
2019-03-03T14:05:27.710Z,22.67
2019-03-03T14:07:58.603Z,26.80
2019-03-03T14:10:29.542Z,24.37
2019-03-03T14:13:00.438Z,23.80
2019-03-03T14:15:31.369Z,19.57
2019-03-03T14:18:02.268Z,18.20
2019-03-03T14:21:04.070Z,23.27
2019-03-03T14:23:35.076Z,21.93
2019-03-03T14:26:06.074Z,22.00
2019-03-03T14:28:37.034Z,24.70
2019-03-03T14:31:07.953Z,24.47
2019-03-03T14:33:38.867Z,26.30
2019-03-03T14:36:10.630Z,17.97
2019-03-03T14:38:41.593Z,22.60
2019-03-03T14:41:13.371Z,15.93
2019-03-03T14:43:44.338Z,18.67
2019-03-03T14:46:15.849Z,16.50
2019-03-03T14:48:46.766Z,16.53
2019-03-03T14:51:18.691Z,17.63
2019-03-03T14:53:49.687Z,16.93
2019-03-03T14:56:21.393Z,19.40
2019-03-03T14:58:52.299Z,18.03
2019-03-03T15:01:23.235Z,20.17
2019-03-03T15:03:54.161Z,19.63
2019-03-03T15:06:27.730Z,18.00
2019-03-03T15:08:58.719Z,17.83
2019-03-03T15:11:29.647Z,21.07
2019-03-03T15:14:00.972Z,18.63
2019-03-03T15:16:32.015Z,18.83
2019-03-03T15:19:02.982Z,15.77
2019-03-03T15:21:34.958Z,20.17
2019-03-03T15:24:05.934Z,25.43
2019-03-03T15:26:36.931Z,20.30
2019-03-03T15:29:07.919Z,16.70
2019-03-03T15:31:39.244Z,34.50
2019-03-03T15:34:10.140Z,56.40
2019-03-03T15:36:42.106Z,104.67
2019-03-03T15:39:13.011Z,43.00
2019-03-03T15:41:45.593Z,22.50
2019-03-03T15:44:16.497Z,21.00
2019-03-03T15:46:47.571Z,17.17
2019-03-03T15:49:18.481Z,16.17
2019-03-03T15:51:51.136Z,25.50
2019-03-03T15:54:22.038Z,18.10
2019-03-03T15:56:52.984Z,15.40
2019-03-03T15:59:23.877Z,13.87
2019-03-03T16:01:54.798Z,12.23
2019-03-03T16:04:25.704Z,16.23
2019-03-03T16:06:57.682Z,13.40
2019-03-03T16:09:28.579Z,16.60
2019-03-03T16:11:59.519Z,19.73
2019-03-03T16:14:30.819Z,16.97
2019-03-03T16:17:01.785Z,18.63
2019-03-03T16:19:32.687Z,13.93
2019-03-03T16:22:04.678Z,15.70
2019-03-03T16:24:35.517Z,15.33
2019-03-03T16:27:06.443Z,17.30
2019-03-03T16:29:37.347Z,16.40
2019-03-03T16:32:08.281Z,11.63
2019-03-03T16:34:39.198Z,16.23
2019-03-03T16:37:11.124Z,19.50
2019-03-03T16:39:42.020Z,13.33
2019-03-03T16:42:13.789Z,16.00
2019-03-03T16:44:44.692Z,11.90
2019-03-03T16:47:15.607Z,12.73
2019-03-03T16:49:47.937Z,12.80
2019-03-03T16:52:19.716Z,14.97
2019-03-03T16:54:51.328Z,12.10
2019-03-03T16:57:22.240Z,13.10
2019-03-03T16:59:53.214Z,15.77
2019-03-03T17:02:24.138Z,12.53
2019-03-03T17:04:55.024Z,15.87
2019-03-03T17:07:26.889Z,15.70
2019-03-03T17:09:57.782Z,67.30
2019-03-03T17:12:28.713Z,30.90
2019-03-03T17:14:59.613Z,22.03
2019-03-03T17:17:30.545Z,19.70
2019-03-03T17:20:01.496Z,18.87
2019-03-03T17:22:33.244Z,16.43
2019-03-03T17:25:05.878Z,16.57
2019-03-03T17:27:36.800Z,13.53
2019-03-03T17:30:10.936Z,14.30
2019-03-03T17:32:41.855Z,14.97
2019-03-03T17:35:14.271Z,11.80
2019-03-03T17:37:46.141Z,18.30
2019-03-03T17:40:21.297Z,22.93
2019-03-03T17:42:53.081Z,21.80
2019-03-03T17:45:24.982Z,15.33
2019-03-03T17:48:02.693Z,13.90
2019-03-03T17:50:36.847Z,15.20
2019-03-03T17:53:08.721Z,13.20
2019-03-03T17:55:39.637Z,17.50
2019-03-03T17:58:10.803Z,17.03
2019-03-03T18:00:43.819Z,15.03
2019-03-03T18:03:14.751Z,16.50
2019-03-03T18:05:45.661Z,26.23
2019-03-03T18:08:17.440Z,29.03
2019-03-03T18:10:48.413Z,22.27
2019-03-03T18:13:19.346Z,19.13
2019-03-03T18:15:50.253Z,23.27
2019-03-03T18:18:21.214Z,19.63
2019-03-03T18:20:52.118Z,15.63
2019-03-03T18:23:23.849Z,18.20
2019-03-03T18:25:54.769Z,22.90
2019-03-03T18:28:25.679Z,19.07
2019-03-03T18:30:56.576Z,19.83
2019-03-03T18:33:27.496Z,133.93
2019-03-03T18:35:58.460Z,68.70
2019-03-03T18:38:30.308Z,22.60
2019-03-03T18:41:01.218Z,24.07
2019-03-03T18:43:33.736Z,23.80
2019-03-03T18:46:05.818Z,29.83
2019-03-03T18:48:36.819Z,30.93
2019-03-03T18:51:07.716Z,32.33
2019-03-03T18:53:39.503Z,36.10
2019-03-03T18:56:10.412Z,38.10
2019-03-03T18:58:41.410Z,44.20
2019-03-03T19:01:12.318Z,22.17
2019-03-03T19:03:43.277Z,24.57
2019-03-03T19:06:14.169Z,24.97
2019-03-03T19:08:45.118Z,25.47
2019-03-03T19:11:16.031Z,21.90
2019-03-03T19:13:46.961Z,24.33
2019-03-03T19:16:17.885Z,22.17
2019-03-03T19:18:48.916Z,24.27
2019-03-03T19:21:19.817Z,20.60
2019-03-03T19:23:51.642Z,18.80
2019-03-03T19:26:22.608Z,27.37
2019-03-03T19:28:53.553Z,23.43
2019-03-03T19:31:24.461Z,25.60
2019-03-03T19:33:57.654Z,23.87
2019-03-03T19:36:28.578Z,22.53
2019-03-03T19:39:00.485Z,19.77
2019-03-03T19:41:31.398Z,27.07
2019-03-03T19:44:03.188Z,28.00
2019-03-03T19:46:34.174Z,38.60
2019-03-03T19:49:05.189Z,33.73
2019-03-03T19:51:36.122Z,26.37
2019-03-03T19:54:07.169Z,29.23
2019-03-03T19:56:38.099Z,25.73
2019-03-03T19:59:09.064Z,30.27
2019-03-03T20:01:40.117Z,26.73
2019-03-03T20:04:11.048Z,26.60
2019-03-03T20:06:41.981Z,25.47
2019-03-03T20:09:15.592Z,27.40
2019-03-03T20:11:47.872Z,27.30
2019-03-03T20:14:18.982Z,27.13
2019-03-03T20:16:50.530Z,25.23
2019-03-03T20:19:21.481Z,26.80
2019-03-03T20:21:52.407Z,24.30
2019-03-03T20:24:24.207Z,30.13
2019-03-03T20:26:55.121Z,28.23
2019-03-03T20:29:26.109Z,30.67
2019-03-03T20:31:57.023Z,34.37
2019-03-03T20:34:28.019Z,40.90
2019-03-03T20:36:58.945Z,25.73
2019-03-03T20:39:30.755Z,25.30
2019-03-03T20:42:01.694Z,23.47
2019-03-03T20:44:33.443Z,24.50
2019-03-03T20:47:04.357Z,24.87
2019-03-03T20:49:35.323Z,28.07
2019-03-03T20:52:06.856Z,25.97
2019-03-03T20:54:37.784Z,31.47
2019-03-03T20:57:13.599Z,27.10
2019-03-03T20:59:45.719Z,30.43
2019-03-03T21:02:16.683Z,27.60
2019-03-03T21:04:49.287Z,26.57
2019-03-03T21:07:23.148Z,25.87
2019-03-03T21:09:54.141Z,23.87
2019-03-03T21:12:25.143Z,24.77
2019-03-03T21:14:56.073Z,22.77
2019-03-03T21:17:27.019Z,23.77
2019-03-03T21:19:57.954Z,19.73
2019-03-03T21:22:28.898Z,16.60
2019-03-03T21:24:59.897Z,17.70
2019-03-03T21:27:31.799Z,15.47
2019-03-03T21:30:02.716Z,17.37
2019-03-03T21:32:33.679Z,20.20
2019-03-03T21:35:07.005Z,21.97
2019-03-03T21:37:38.047Z,20.97
2019-03-03T21:40:26.374Z,22.17
2019-03-03T21:42:58.321Z,23.30
2019-03-03T21:45:30.805Z,17.40
2019-03-03T21:48:01.771Z,16.43
2019-03-03T21:50:32.876Z,15.83
2019-03-03T21:53:05.499Z,15.70
2019-03-03T21:55:36.459Z,11.80
2019-03-03T21:58:08.913Z,9.77
2019-03-03T22:00:41.522Z,6.13
2019-03-03T22:03:12.473Z,7.33
2019-03-03T22:05:43.401Z,6.50
2019-03-03T22:08:14.327Z,9.50
2019-03-03T22:10:45.228Z,7.53
2019-03-03T22:13:17.027Z,8.73
2019-03-03T22:15:47.935Z,10.57
2019-03-03T22:18:18.873Z,18.07
2019-03-03T22:20:49.784Z,14.30
2019-03-03T22:23:20.767Z,12.93
2019-03-03T22:25:51.644Z,8.70
2019-03-03T22:28:23.492Z,10.33
2019-03-03T22:30:54.383Z,11.20
2019-03-03T22:33:25.299Z,16.97
2019-03-03T22:35:56.198Z,20.00
2019-03-03T22:38:27.132Z,21.30
2019-03-03T22:40:58.037Z,25.07
2019-03-03T22:43:29.845Z,24.40
2019-03-03T22:46:00.743Z,23.43
2019-03-03T22:48:31.687Z,21.57
2019-03-03T22:51:02.659Z,27.00
2019-03-03T22:53:33.605Z,19.83
2019-03-03T22:56:04.583Z,17.40
2019-03-03T22:58:35.554Z,22.57
2019-03-03T23:01:12.365Z,23.17
2019-03-03T23:03:46.210Z,29.10
2019-03-03T23:06:38.196Z,40.73
2019-03-03T23:09:14.875Z,40.47
2019-03-03T23:12:19.223Z,38.77
2019-03-03T23:15:00.057Z,38.60
2019-03-03T23:17:53.393Z,33.80
2019-03-03T23:20:29.899Z,31.40
2019-03-03T23:23:06.591Z,29.83
2019-03-03T23:25:53.651Z,30.77
2019-03-03T23:28:24.654Z,31.40
2019-03-03T23:30:55.590Z,32.23
2019-03-03T23:33:26.498Z,45.47
2019-03-03T23:35:57.432Z,42.73
2019-03-03T23:38:28.330Z,36.07
2019-03-03T23:40:59.260Z,34.07
2019-03-03T23:43:30.152Z,34.00
2019-03-03T23:46:03.868Z,34.13
2019-03-03T23:48:34.764Z,35.83
2019-03-03T23:51:05.691Z,31.10
2019-03-03T23:53:36.589Z,37.90
2019-03-03T23:56:07.515Z,34.67
2019-03-03T23:58:38.417Z,42.07
